createdAt,value
2018-04-13T00:01:27.076Z,2.93
2018-04-13T00:03:54.544Z,2.83
2018-04-13T00:06:21.994Z,3.33
2018-04-13T00:08:49.492Z,3.10
2018-04-13T00:11:16.972Z,3.10
2018-04-13T00:13:44.439Z,3.10
2018-04-13T00:16:11.897Z,3.00
2018-04-13T00:18:39.372Z,3.10
2018-04-13T00:21:06.971Z,3.50
2018-04-13T00:23:34.456Z,3.70
2018-04-13T00:26:03.591Z,3.27
2018-04-13T00:28:31.117Z,3.40
2018-04-13T00:30:58.609Z,3.10
2018-04-13T00:33:26.138Z,3.60
2018-04-13T00:35:53.592Z,3.50
2018-04-13T00:38:21.083Z,3.37
2018-04-13T00:40:48.568Z,3.93
2018-04-13T00:43:16.062Z,4.20
2018-04-13T00:45:43.526Z,4.13
2018-04-13T00:48:11.045Z,4.57
2018-04-13T00:50:38.820Z,3.73
2018-04-13T00:53:18.081Z,3.53
2018-04-13T00:55:45.532Z,4.10
2018-04-13T00:58:13.019Z,4.30
2018-04-13T01:00:40.488Z,4.40
2018-04-13T01:03:07.952Z,3.83
2018-04-13T01:05:35.445Z,4.17
2018-04-13T01:08:03.034Z,3.80
2018-04-13T01:10:30.534Z,3.67
2018-04-13T01:12:58.001Z,3.73
2018-04-13T01:15:25.475Z,3.30
2018-04-13T01:17:52.942Z,3.00
2018-04-13T01:20:20.442Z,3.50
2018-04-13T01:22:47.898Z,3.77
2018-04-13T01:25:15.383Z,3.43
2018-04-13T01:27:42.874Z,3.73
2018-04-13T01:30:10.349Z,3.17
2018-04-13T01:32:37.821Z,4.00
2018-04-13T01:35:05.297Z,3.70
2018-04-13T01:37:32.784Z,3.53
2018-04-13T01:40:00.280Z,3.70
2018-04-13T01:42:27.767Z,3.70
2018-04-13T01:44:55.260Z,3.73
2018-04-13T01:47:22.738Z,3.77
2018-04-13T01:49:50.220Z,3.70
2018-04-13T01:52:17.706Z,4.13
2018-04-13T01:54:45.192Z,4.07
2018-04-13T01:57:12.677Z,4.40
2018-04-13T01:59:40.439Z,4.77
2018-04-13T02:02:07.996Z,4.77
2018-04-13T02:04:35.507Z,4.50
2018-04-13T02:07:03.099Z,4.07
2018-04-13T02:09:30.594Z,4.63
2018-04-13T02:11:58.102Z,4.87
2018-04-13T02:14:25.580Z,5.00
2018-04-13T02:16:53.082Z,5.30
2018-04-13T02:19:20.573Z,4.33
2018-04-13T02:21:48.047Z,3.93
2018-04-13T02:24:15.592Z,3.90
2018-04-13T02:26:43.209Z,3.50
2018-04-13T02:29:11.412Z,3.17
2018-04-13T02:31:38.885Z,3.60
2018-04-13T02:34:06.584Z,4.30
2018-04-13T02:36:34.053Z,3.80
2018-04-13T02:39:01.533Z,3.80
2018-04-13T02:41:28.990Z,4.07
2018-04-13T02:43:56.473Z,3.60
2018-04-13T02:46:23.953Z,3.40
2018-04-13T02:48:51.497Z,3.43
2018-04-13T02:51:18.975Z,3.40
2018-04-13T02:53:46.438Z,3.23
2018-04-13T02:56:13.966Z,4.00
2018-04-13T02:58:41.509Z,3.43
2018-04-13T03:01:08.985Z,3.60
2018-04-13T03:03:36.442Z,3.47
2018-04-13T03:06:03.922Z,3.27
2018-04-13T03:08:31.400Z,4.20
2018-04-13T03:10:58.962Z,4.20
2018-04-13T03:13:26.505Z,3.93
2018-04-13T03:15:53.995Z,4.00
2018-04-13T03:18:21.446Z,4.07
2018-04-13T03:20:48.913Z,4.27
2018-04-13T03:23:16.381Z,4.30
2018-04-13T03:25:43.853Z,4.00
2018-04-13T03:28:11.322Z,3.63
2018-04-13T03:30:38.801Z,4.07
2018-04-13T03:33:06.276Z,3.80
2018-04-13T03:35:33.756Z,4.27
2018-04-13T03:38:01.275Z,4.10
2018-04-13T03:40:28.726Z,4.67
2018-04-13T03:42:56.203Z,4.80
2018-04-13T03:45:23.662Z,4.30
2018-04-13T03:47:51.121Z,4.80
2018-04-13T03:50:18.590Z,5.17
2018-04-13T03:52:46.062Z,4.63
2018-04-13T03:55:13.536Z,5.70
2018-04-13T03:57:41.003Z,6.17
2018-04-13T04:00:08.471Z,6.70
2018-04-13T04:02:35.951Z,5.87
2018-04-13T04:05:03.439Z,6.27
2018-04-13T04:07:30.953Z,6.23
2018-04-13T04:09:58.450Z,6.60
2018-04-13T04:12:25.965Z,7.17
2018-04-13T04:14:53.433Z,6.73
2018-04-13T04:17:20.912Z,7.47
2018-04-13T04:20:00.230Z,7.13
2018-04-13T04:22:39.676Z,7.63
2018-04-13T04:28:30.074Z,6.23
2018-04-13T04:30:57.579Z,7.50
2018-04-13T04:33:25.073Z,7.90
2018-04-13T04:35:52.563Z,7.10
2018-04-13T04:38:20.088Z,6.70
2018-04-13T04:40:47.554Z,6.87
2018-04-13T04:43:15.029Z,6.90
2018-04-13T04:45:42.510Z,7.20
2018-04-13T04:48:10.053Z,8.30
2018-04-13T04:50:37.543Z,7.57
2018-04-13T04:53:05.132Z,7.20
2018-04-13T04:55:32.615Z,7.00
2018-04-13T04:58:00.077Z,7.80
2018-04-13T05:00:27.694Z,6.87
2018-04-13T05:02:55.161Z,7.10
2018-04-13T05:05:22.625Z,6.37
2018-04-13T05:07:50.104Z,6.33
2018-04-13T05:10:17.582Z,6.40
2018-04-13T05:12:45.077Z,5.87
2018-04-13T05:15:12.571Z,5.70
2018-04-13T05:17:40.200Z,5.73
2018-04-13T05:20:07.802Z,5.27
2018-04-13T05:22:35.296Z,5.80
2018-04-13T05:25:02.779Z,6.03
2018-04-13T05:27:30.248Z,4.70
2018-04-13T05:29:57.718Z,4.63
2018-04-13T05:32:25.193Z,4.83
2018-04-13T05:34:52.689Z,4.57
2018-04-13T05:37:20.182Z,4.43
2018-04-13T05:39:47.661Z,4.47
2018-04-13T05:42:15.119Z,4.53
2018-04-13T05:44:42.591Z,4.33
2018-04-13T05:47:10.180Z,4.30
2018-04-13T05:49:37.831Z,4.10
2018-04-13T05:52:05.304Z,7.93
2018-04-13T05:54:33.010Z,6.40
2018-04-13T05:57:00.762Z,5.70
2018-04-13T05:59:28.397Z,4.80
2018-04-13T06:01:56.012Z,5.13
2018-04-13T06:04:23.750Z,5.43
2018-04-13T06:06:51.357Z,4.93
2018-04-13T06:09:18.886Z,5.27
2018-04-13T06:11:46.395Z,5.50
2018-04-13T06:14:13.998Z,5.87
2018-04-13T06:16:41.483Z,5.17
2018-04-13T06:19:08.981Z,6.30
2018-04-13T06:21:42.305Z,5.30
2018-04-13T06:24:09.867Z,5.63
2018-04-13T06:26:37.365Z,5.20
2018-04-13T06:29:04.842Z,6.57
2018-04-13T06:31:32.358Z,7.37
2018-04-13T06:34:00.054Z,9.60
2018-04-13T06:36:27.589Z,6.97
2018-04-13T06:38:55.086Z,6.00
2018-04-13T06:41:22.713Z,5.87
2018-04-13T06:43:50.201Z,6.03
2018-04-13T06:46:17.760Z,5.87
2018-04-13T06:48:45.438Z,6.43
2018-04-13T06:51:13.055Z,6.57
2018-04-13T06:53:40.655Z,6.10
2018-04-13T06:56:08.137Z,6.53
2018-04-13T06:58:35.667Z,7.33
2018-04-13T07:01:03.196Z,7.33
2018-04-13T07:03:30.685Z,8.37
2018-04-13T07:05:58.348Z,7.77
2018-04-13T07:08:25.899Z,7.60
2018-04-13T07:10:53.374Z,8.83
2018-04-13T07:13:20.870Z,9.10
2018-04-13T07:15:48.520Z,7.80
2018-04-13T07:18:16.071Z,7.80
2018-04-13T07:20:43.610Z,10.10
2018-04-13T07:23:11.144Z,11.40
2018-04-13T07:25:38.623Z,10.60
2018-04-13T07:28:06.106Z,10.67
2018-04-13T07:30:33.749Z,8.80
2018-04-13T07:33:01.303Z,9.70
2018-04-13T07:35:28.791Z,9.23
2018-04-13T07:37:56.301Z,10.47
2018-04-13T07:40:23.904Z,10.30
2018-04-13T07:42:51.372Z,11.10
2018-04-13T07:45:18.886Z,10.27
2018-04-13T07:47:46.356Z,10.30
2018-04-13T07:50:14.214Z,10.73
2018-04-13T07:52:41.435Z,11.10
2018-04-13T07:55:08.961Z,10.93
2018-04-13T07:57:36.517Z,11.20
2018-04-13T08:00:04.056Z,11.13
2018-04-13T08:02:31.535Z,11.13
2018-04-13T08:04:59.048Z,11.90
2018-04-13T08:07:26.537Z,11.27
2018-04-13T08:09:54.065Z,11.43
2018-04-13T08:12:21.540Z,13.07
2018-04-13T08:14:49.048Z,12.93
2018-04-13T08:17:16.529Z,14.07
2018-04-13T08:19:44.066Z,12.83
2018-04-13T08:22:11.733Z,13.57
2018-04-13T08:24:39.311Z,14.40
2018-04-13T08:27:06.811Z,14.83
2018-04-13T08:29:34.317Z,12.37
2018-04-13T08:32:01.849Z,10.43
2018-04-13T08:34:29.344Z,12.47
2018-04-13T08:36:56.822Z,12.20
2018-04-13T08:39:24.315Z,11.83
2018-04-13T08:41:51.954Z,12.63
2018-04-13T08:44:19.491Z,13.47
2018-04-13T08:46:46.998Z,13.47
2018-04-13T08:49:14.704Z,13.53
2018-04-13T08:51:42.038Z,12.93
2018-04-13T08:54:09.539Z,11.63
2018-04-13T08:56:37.016Z,12.93
2018-04-13T08:59:04.490Z,10.80
2018-04-13T09:01:31.961Z,12.27
2018-04-13T09:03:59.454Z,11.00
2018-04-13T09:06:26.980Z,10.53
2018-04-13T09:08:54.498Z,10.63
2018-04-13T09:11:22.004Z,9.00
2018-04-13T09:13:49.495Z,9.17
2018-04-13T09:16:16.996Z,8.63
2018-04-13T09:18:44.458Z,9.40
2018-04-13T09:21:11.932Z,9.20
2018-04-13T09:23:39.406Z,8.20
2018-04-13T09:26:06.873Z,7.87
2018-04-13T09:28:34.381Z,8.40
2018-04-13T09:31:01.892Z,8.00
2018-04-13T09:33:29.388Z,7.80
2018-04-13T09:35:56.867Z,8.10
2018-04-13T09:38:24.341Z,7.50
2018-04-13T09:40:51.845Z,8.23
2018-04-13T09:43:19.364Z,7.37
2018-04-13T09:45:46.864Z,7.27
2018-04-13T09:48:14.332Z,7.30
2018-04-13T09:50:41.876Z,7.43
2018-04-13T09:53:09.360Z,6.90
2018-04-13T09:55:36.824Z,7.20
2018-04-13T09:58:04.321Z,7.47
2018-04-13T10:00:31.948Z,7.53
2018-04-13T10:03:03.261Z,6.23
2018-04-13T10:05:30.791Z,6.63
2018-04-13T10:07:58.549Z,5.43
2018-04-13T10:10:26.141Z,5.63
2018-04-13T10:12:53.615Z,4.67
2018-04-13T10:15:21.118Z,4.50
2018-04-13T10:17:48.631Z,4.37
2018-04-13T10:20:16.121Z,4.70
2018-04-13T10:22:43.594Z,4.20
2018-04-13T10:25:11.098Z,5.20
2018-04-13T10:27:38.618Z,5.93
2018-04-13T10:30:06.153Z,6.43
2018-04-13T10:32:33.702Z,7.57
2018-04-13T10:35:01.240Z,7.10
2018-04-13T10:37:28.719Z,6.60
2018-04-13T10:39:56.186Z,7.10
2018-04-13T10:42:23.792Z,7.30
2018-04-13T10:44:51.294Z,7.00
2018-04-13T10:47:18.813Z,7.50
2018-04-13T10:49:46.323Z,8.40
2018-04-13T10:52:13.821Z,9.87
2018-04-13T10:54:41.505Z,10.70
2018-04-13T10:57:08.987Z,11.50
2018-04-13T10:59:36.456Z,11.67
2018-04-13T11:02:06.188Z,13.13
2018-04-13T11:04:33.761Z,13.57
2018-04-13T11:07:01.552Z,15.60
2018-04-13T11:09:29.180Z,14.10
2018-04-13T11:11:57.011Z,12.37
2018-04-13T11:14:24.521Z,12.40
2018-04-13T11:16:52.008Z,11.80
2018-04-13T11:19:20.092Z,14.53
2018-04-13T11:21:47.584Z,16.50
2018-04-13T11:24:15.059Z,14.53
2018-04-13T11:26:42.528Z,14.03
2018-04-13T11:29:10.021Z,21.70
2018-04-13T11:31:37.495Z,15.87
2018-04-13T11:34:05.121Z,14.43
2018-04-13T11:36:32.629Z,15.07
2018-04-13T11:39:00.118Z,13.03
2018-04-13T11:44:15.914Z,12.30
2018-04-13T11:46:43.403Z,11.27
2018-04-13T11:49:10.886Z,11.10
2018-04-13T11:51:38.435Z,10.27
2018-04-13T11:54:05.908Z,10.03
2018-04-13T11:56:33.400Z,11.10
2018-04-13T11:59:00.877Z,9.63
2018-04-13T12:01:28.372Z,7.90
2018-04-13T12:03:55.863Z,6.97
2018-04-13T12:06:23.330Z,5.83
2018-04-13T12:08:50.817Z,6.30
2018-04-13T12:11:18.530Z,4.83
2018-04-13T12:13:46.020Z,6.13
2018-04-13T12:16:13.500Z,8.03
2018-04-13T12:18:41.114Z,6.20
2018-04-13T12:21:08.607Z,4.63
2018-04-13T12:23:36.109Z,4.50
2018-04-13T12:26:03.593Z,4.30
2018-04-13T12:28:31.143Z,4.20
2018-04-13T12:30:58.639Z,3.60
2018-04-13T12:33:26.247Z,2.93
2018-04-13T12:35:53.740Z,3.40
2018-04-13T12:38:21.251Z,3.33
2018-04-13T12:40:48.761Z,3.27
2018-04-13T12:43:16.222Z,3.00
2018-04-13T12:46:00.185Z,2.70
2018-04-13T12:48:27.773Z,1.77
2018-04-13T12:50:55.340Z,2.03
2018-04-13T12:53:22.864Z,2.10
2018-04-13T12:55:50.336Z,2.00
2018-04-13T12:58:17.794Z,1.73
2018-04-13T13:00:45.314Z,3.53
2018-04-13T13:03:12.787Z,2.50
2018-04-13T13:05:40.305Z,2.67
2018-04-13T13:08:07.778Z,2.47
2018-04-13T13:10:35.288Z,3.20
2018-04-13T13:13:02.789Z,4.00
2018-04-13T13:15:30.340Z,3.37
2018-04-13T13:17:57.850Z,3.63
2018-04-13T13:20:25.323Z,3.90
2018-04-13T13:22:52.838Z,4.23
2018-04-13T13:25:20.305Z,4.23
2018-04-13T13:27:47.856Z,3.50
2018-04-13T13:30:15.417Z,4.17
2018-04-13T13:32:42.904Z,3.70
2018-04-13T13:35:10.459Z,4.13
2018-04-13T13:37:37.924Z,3.73
2018-04-13T13:40:05.597Z,3.50
2018-04-13T13:42:33.103Z,3.80
2018-04-13T13:45:01.503Z,3.43
2018-04-13T13:47:28.997Z,3.93
2018-04-13T13:49:56.559Z,3.83
2018-04-13T13:52:24.052Z,3.70
2018-04-13T13:54:51.539Z,3.20
2018-04-13T13:57:19.016Z,3.20
2018-04-13T13:59:46.492Z,3.10
2018-04-13T14:02:13.977Z,3.10
2018-04-13T14:04:41.694Z,2.80
2018-04-13T14:07:09.174Z,2.90
2018-04-13T14:09:36.633Z,2.70
2018-04-13T14:12:04.118Z,2.87
2018-04-13T14:14:31.879Z,2.57
2018-04-13T14:16:59.342Z,1.90
2018-04-13T14:19:26.829Z,2.10
2018-04-13T14:21:54.287Z,1.93
2018-04-13T14:24:21.854Z,2.00
2018-04-13T14:26:49.345Z,1.97
2018-04-13T14:29:16.812Z,1.80
2018-04-13T14:31:44.373Z,1.50
2018-04-13T14:34:11.947Z,1.90
2018-04-13T14:36:39.449Z,1.60
2018-04-13T14:39:07.073Z,2.03
2018-04-13T14:41:34.553Z,1.80
2018-04-13T14:44:02.050Z,1.93
2018-04-13T14:46:29.540Z,2.10
2018-04-13T14:48:57.025Z,2.00
2018-04-13T14:51:24.647Z,1.90
2018-04-13T14:53:52.221Z,1.80
2018-04-13T14:56:19.726Z,1.70
2018-04-13T14:58:47.247Z,1.33
2018-04-13T15:01:14.737Z,1.70
2018-04-13T15:03:42.246Z,1.60
2018-04-13T15:06:13.248Z,1.70
2018-04-13T15:08:40.728Z,1.90
2018-04-13T15:11:08.239Z,1.53
2018-04-13T15:13:35.722Z,1.90
2018-04-13T15:16:05.008Z,2.07
2018-04-13T15:21:33.122Z,2.67
2018-04-13T15:24:00.614Z,1.83
2018-04-13T15:26:28.216Z,1.67
2018-04-13T15:28:55.747Z,2.83
2018-04-13T15:31:23.230Z,1.70
2018-04-13T15:33:50.746Z,1.50
2018-04-13T15:36:18.232Z,1.60
2018-04-13T15:38:45.755Z,1.60
2018-04-13T15:41:30.271Z,1.60
2018-04-13T15:43:57.741Z,1.80
2018-04-13T15:46:25.331Z,1.43
2018-04-13T15:48:52.810Z,1.70
2018-04-13T15:51:20.292Z,1.60
2018-04-13T15:53:47.766Z,1.80
2018-04-13T15:56:17.034Z,2.57
2018-04-13T15:58:44.619Z,2.80
2018-04-13T16:01:12.126Z,2.07
2018-04-13T16:03:39.780Z,2.20
2018-04-13T16:06:07.285Z,2.30
2018-04-13T16:08:34.933Z,2.10
2018-04-13T16:11:02.413Z,1.87
2018-04-13T16:13:29.900Z,1.80
2018-04-13T16:15:57.417Z,2.20
2018-04-13T16:18:24.907Z,2.27
2018-04-13T16:20:52.388Z,2.40
2018-04-13T16:23:19.911Z,2.53
2018-04-13T16:25:47.400Z,2.60
2018-04-13T16:28:14.891Z,2.20
2018-04-13T16:30:42.381Z,2.10
2018-04-13T16:33:09.849Z,2.40
2018-04-13T16:35:37.362Z,1.90
2018-04-13T16:38:04.872Z,2.47
2018-04-13T16:40:32.428Z,2.40
2018-04-13T16:42:59.924Z,2.50
2018-04-13T16:45:27.396Z,2.90
2018-04-13T16:47:54.900Z,3.00
2018-04-13T16:50:22.388Z,2.80
2018-04-13T16:52:49.905Z,2.53
2018-04-13T16:55:17.406Z,2.13
2018-04-13T16:57:46.963Z,2.70
2018-04-13T17:00:14.425Z,2.17
2018-04-13T17:02:41.961Z,2.83
2018-04-13T17:05:09.434Z,2.80
2018-04-13T17:07:36.988Z,2.40
2018-04-13T17:10:07.557Z,2.50
2018-04-13T17:12:35.109Z,2.43
2018-04-13T17:15:02.700Z,2.37
2018-04-13T17:17:30.208Z,2.53
2018-04-13T17:19:57.681Z,2.50
2018-04-13T17:22:25.169Z,2.50
2018-04-13T17:24:52.643Z,3.20
2018-04-13T17:27:21.109Z,2.97
2018-04-13T17:29:48.673Z,3.30
2018-04-13T17:32:16.146Z,2.73
2018-04-13T17:34:43.702Z,3.33
2018-04-13T17:37:11.227Z,3.20
2018-04-13T17:39:38.766Z,3.33
2018-04-13T17:45:02.345Z,3.53
2018-04-13T17:47:34.003Z,3.30
2018-04-13T17:50:01.911Z,3.23
2018-04-13T17:52:29.541Z,3.40
2018-04-13T17:54:57.135Z,3.73
2018-04-13T17:57:24.679Z,3.67
2018-04-13T17:59:52.227Z,3.67
2018-04-13T18:02:19.735Z,3.93
2018-04-13T18:04:50.022Z,4.00
2018-04-13T18:07:17.667Z,3.90
2018-04-13T18:10:03.991Z,3.90
2018-04-13T18:12:31.869Z,4.13
2018-04-13T18:14:59.342Z,4.20
2018-04-13T18:17:29.935Z,4.13
2018-04-13T18:19:57.456Z,4.10
2018-04-13T18:22:24.920Z,4.97
2018-04-13T18:24:52.508Z,4.63
2018-04-13T18:27:20.081Z,5.50
2018-04-13T18:29:47.681Z,5.17
2018-04-13T18:32:20.086Z,5.57
2018-04-13T18:34:49.225Z,5.70
2018-04-13T18:37:24.273Z,5.30
2018-04-13T18:39:51.779Z,4.90
2018-04-13T18:42:20.034Z,4.87
2018-04-13T18:44:47.844Z,6.27
2018-04-13T18:47:16.493Z,5.27
2018-04-13T18:49:50.007Z,4.83
2018-04-13T18:52:17.938Z,4.97
2018-04-13T18:54:54.445Z,5.87
2018-04-13T18:57:22.065Z,7.00
2018-04-13T18:59:56.163Z,6.27
2018-04-13T19:02:33.104Z,5.43
2018-04-13T19:05:00.874Z,6.10
2018-04-13T19:07:28.679Z,4.97
2018-04-13T19:09:56.249Z,5.90
2018-04-13T19:12:23.775Z,4.90
2018-04-13T19:14:51.241Z,4.60
2018-04-13T19:17:21.710Z,4.50
2018-04-13T19:19:51.518Z,4.77
2018-04-13T19:22:19.032Z,4.67
2018-04-13T19:24:53.446Z,4.77
2018-04-13T19:27:22.575Z,4.50
2018-04-13T19:29:50.083Z,5.13
2018-04-13T19:32:17.693Z,4.90
2018-04-13T19:34:45.194Z,4.63
2018-04-13T19:37:12.783Z,4.70
2018-04-13T19:39:40.265Z,4.83
2018-04-13T19:42:09.869Z,4.50
2018-04-13T19:44:37.432Z,4.73
2018-04-13T19:47:04.923Z,4.37
2018-04-13T19:49:32.433Z,4.33
2018-04-13T19:51:59.937Z,4.87
2018-04-13T19:54:27.695Z,5.33
2018-04-13T19:56:55.175Z,5.60
2018-04-13T19:59:22.756Z,5.00
2018-04-13T20:01:50.271Z,4.90
2018-04-13T20:04:17.821Z,4.17
2018-04-13T20:06:45.333Z,4.23
2018-04-13T20:09:12.885Z,5.47
2018-04-13T20:11:40.512Z,3.73
2018-04-13T20:14:07.999Z,4.30
2018-04-13T20:16:35.506Z,5.20
2018-04-13T20:19:02.985Z,4.07
2018-04-13T20:21:30.476Z,4.10
2018-04-13T20:23:58.083Z,4.00
2018-04-13T20:26:25.565Z,4.23
2018-04-13T20:28:53.069Z,4.17
2018-04-13T20:31:20.557Z,5.13
2018-04-13T20:33:48.193Z,3.47
2018-04-13T20:36:15.689Z,3.87
2018-04-13T20:38:43.186Z,3.33
2018-04-13T20:41:10.668Z,4.07
2018-04-13T20:43:38.169Z,4.00
2018-04-13T20:46:05.739Z,3.87
2018-04-13T20:48:33.233Z,3.60
2018-04-13T20:51:00.790Z,3.47
2018-04-13T20:53:28.287Z,3.53
2018-04-13T20:55:56.007Z,3.60
2018-04-13T20:58:23.617Z,4.17
2018-04-13T21:00:51.118Z,3.90
2018-04-13T21:03:18.602Z,4.37
2018-04-13T21:05:46.098Z,4.07
2018-04-13T21:08:15.483Z,4.80
2018-04-13T21:10:42.984Z,4.13
2018-04-13T21:13:10.474Z,4.77
2018-04-13T21:15:37.986Z,4.17
2018-04-13T21:18:05.478Z,5.37
2018-04-13T21:20:32.968Z,4.67
2018-04-13T21:23:00.446Z,5.47
2018-04-13T21:25:28.021Z,5.17
2018-04-13T21:27:55.492Z,4.53
2018-04-13T21:30:23.038Z,11.80
2018-04-13T21:32:50.540Z,6.50
2018-04-13T21:35:18.068Z,4.80
2018-04-13T21:37:45.553Z,5.37
2018-04-13T21:40:13.025Z,5.10
2018-04-13T21:42:40.501Z,5.40
2018-04-13T21:45:08.106Z,5.90
2018-04-13T21:47:35.572Z,5.60
2018-04-13T21:50:03.072Z,5.60
2018-04-13T21:52:30.625Z,5.57
2018-04-13T21:54:58.093Z,6.33
2018-04-13T21:57:25.600Z,5.80
2018-04-13T21:59:53.138Z,6.27
2018-04-13T22:02:20.658Z,5.93
2018-04-13T22:04:48.129Z,6.90
2018-04-13T22:07:15.613Z,6.17
2018-04-13T22:09:43.087Z,5.93
2018-04-13T22:12:22.385Z,6.40
2018-04-13T22:14:54.865Z,6.00
2018-04-13T22:17:22.364Z,5.67
2018-04-13T22:19:50.979Z,6.07
2018-04-13T22:22:18.472Z,6.40
2018-04-13T22:24:46.042Z,5.80
2018-04-13T22:27:13.646Z,5.33
2018-04-13T22:29:41.146Z,5.43
2018-04-13T22:32:08.645Z,5.57
2018-04-13T22:34:36.140Z,5.47
2018-04-13T22:37:03.616Z,5.60
2018-04-13T22:39:31.105Z,5.03
2018-04-13T22:41:58.607Z,5.80
2018-04-13T22:44:26.137Z,5.13
2018-04-13T22:46:53.661Z,4.73
2018-04-13T22:49:21.141Z,5.00
2018-04-13T22:51:48.771Z,4.77
2018-04-13T22:54:16.249Z,4.60
2018-04-13T22:56:43.746Z,5.10
2018-04-13T22:59:11.238Z,5.00
2018-04-13T23:01:39.507Z,5.53
2018-04-13T23:04:07.000Z,4.80
2018-04-13T23:06:34.458Z,5.73
2018-04-13T23:09:01.938Z,4.63
2018-04-13T23:11:29.451Z,5.20
2018-04-13T23:13:56.943Z,4.93
2018-04-13T23:16:24.448Z,5.30
2018-04-13T23:18:51.918Z,5.70
2018-04-13T23:21:19.395Z,5.37
2018-04-13T23:23:46.879Z,5.23
2018-04-13T23:26:14.457Z,4.70
2018-04-13T23:28:41.932Z,4.73
2018-04-13T23:31:09.424Z,5.20
2018-04-13T23:33:36.932Z,5.40
2018-04-13T23:36:04.457Z,4.73
2018-04-13T23:38:31.959Z,5.23
2018-04-13T23:40:59.427Z,5.20
2018-04-13T23:43:26.901Z,4.87
2018-04-13T23:45:54.376Z,4.87
2018-04-13T23:48:21.903Z,5.30
2018-04-13T23:50:49.400Z,6.00
2018-04-13T23:53:16.886Z,6.10
2018-04-13T23:55:44.365Z,6.33
2018-04-13T23:58:11.864Z,6.10
